Time;durP1;ratioP1;P1;durP2;ratioP2;P2;SDS_P1;SDS_P2;PMS_P1;PMS_P2;Temp;Humidity;BMP_temperature;BMP_pressure;BME280_temperature;BME280_humidity;BME280_pressure;Samples;Min_cycle;Max_cycle;Signal;HPM_P1;HPM_P2
2022/10/12 00:00:43;;;;;;;5.80;1.80;;;;;;;8.02;49.89;99983.08;24544;1340;3053799;-68
2022/10/12 00:03:13;;;;;;;2.80;1.70;;;;;;;7.98;49.92;99979.56;24466;1335;3029365;-66
2022/10/12 00:05:42;;;;;;;5.70;1.40;;;;;;;7.97;49.97;99984.87;24497;1333;3026899;-69
2022/10/12 00:08:11;;;;;;;3.00;1.30;;;;;;;7.99;50.09;99984.61;24485;1324;3026183;-64
2022/10/12 00:10:41;;;;;;;3.30;1.50;;;;;;;7.91;50.13;99987.70;24487;1334;3049654;-67
2022/10/12 00:13:10;;;;;;;2.60;1.30;;;;;;;7.84;50.38;99993.59;24483;1340;3029564;-68
2022/10/12 00:15:40;;;;;;;3.20;1.30;;;;;;;7.81;50.43;99994.39;24567;1333;3026914;-66
2022/10/12 00:18:11;;;;;;;1.90;1.00;;;;;;;7.82;50.43;99992.77;24501;1341;3029479;-70
2022/10/12 00:20:40;;;;;;;5.20;1.70;;;;;;;7.83;50.58;99988.55;24514;1323;3028433;-68
2022/10/12 00:23:09;;;;;;;3.70;1.30;;;;;;;7.82;50.33;99988.25;24493;1334;3050691;-69
2022/10/12 00:25:38;;;;;;;3.70;1.80;;;;;;;7.85;50.56;99986.21;24512;1327;3026609;-62
2022/10/12 00:28:07;;;;;;;2.20;1.30;;;;;;;7.87;50.38;99989.98;24496;1333;3068288;-70
2022/10/12 00:30:38;;;;;;;3.40;1.50;;;;;;;7.79;50.70;99991.67;24547;1326;3028261;-66
2022/10/12 00:33:08;;;;;;;2.90;1.20;;;;;;;7.74;50.63;99999.38;24556;1329;3050547;-71
2022/10/12 00:35:37;;;;;;;2.60;1.30;;;;;;;7.71;50.35;99995.16;24547;1334;3027144;-68
2022/10/12 00:38:06;;;;;;;2.70;1.30;;;;;;;7.69;50.54;99993.13;24523;1334;3025882;-70
2022/10/12 00:40:36;;;;;;;3.30;1.40;;;;;;;7.78;50.51;99993.66;24494;1333;3049726;-70
2022/10/12 00:43:34;;;;;;;5.10;1.20;;;;;;;7.78;50.61;99993.82;24561;1332;3029801;-67
2022/10/12 00:46:06;;;;;;;3.30;1.30;;;;;;;7.77;50.36;99999.63;24557;1334;3052148;-70
2022/10/12 00:48:37;;;;;;;6.90;2.00;;;;;;;7.79;50.73;99994.48;24538;1340;3027830;-71
2022/10/12 00:51:06;;;;;;;3.50;1.70;;;;;;;7.74;50.83;99996.23;24530;1327;3025750;-72
2022/10/12 00:53:38;;;;;;;3.30;1.40;;;;;;;7.79;50.76;99997.46;24619;1327;3025785;-74
2022/10/12 00:56:11;;;;;;;3.90;1.60;;;;;;;7.78;51.30;99999.75;24553;1344;3050451;-70
2022/10/12 00:58:41;;;;;;;3.10;1.40;;;;;;;7.85;51.38;99995.30;24546;1327;3069394;-70
2022/10/12 01:01:10;;;;;;;4.20;1.80;;;;;;;7.83;51.39;99993.27;24533;1326;3026542;-72
2022/10/12 01:03:40;;;;;;;3.70;1.40;;;;;;;7.82;51.41;99997.86;24505;1334;3049698;-71
2022/10/12 01:06:10;;;;;;;2.80;1.40;;;;;;;7.76;52.07;99996.85;24493;1327;3028346;-71
2022/10/12 01:08:41;;;;;;;2.80;1.40;;;;;;;7.86;52.12;99990.88;24533;1334;3051882;-70
2022/10/12 01:11:11;;;;;;;5.50;1.70;;;;;;;7.78;52.29;99992.77;24490;1343;3027462;-68
2022/10/12 01:13:40;;;;;;;4.50;1.90;;;;;;;7.76;52.51;99993.21;24531;1327;3025698;-68
2022/10/12 01:16:18;;;;;;;3.90;1.90;;;;;;;7.73;52.45;99993.67;24465;1335;3050890;-72
2022/10/12 01:19:08;;;;;;;4.20;1.60;;;;;;;7.69;53.01;99990.20;24532;1340;3050700;-70
2022/10/12 01:21:44;;;;;;;7.30;2.20;;;;;;;7.65;53.24;99993.47;24527;1338;3070575;-69
2022/10/12 01:24:22;;;;;;;3.80;2.00;;;;;;;7.65;53.45;99997.65;24529;1341;3049835;-74
2022/10/12 01:27:16;;;;;;;4.60;1.80;;;;;;;7.66;53.58;99991.71;24550;1333;3057467;-72
2022/10/12 01:30:13;;;;;;;5.90;2.20;;;;;;;7.63;54.04;99994.06;24572;1327;3052975;-72
2022/10/12 01:33:15;;;;;;;3.80;1.70;;;;;;;7.57;54.35;99997.64;24522;1333;3053834;-71
2022/10/12 01:35:55;;;;;;;4.20;1.90;;;;;;;7.53;53.87;99998.48;24499;1327;3052326;-70
2022/10/12 01:38:29;;;;;;;5.50;2.00;;;;;;;7.54;54.24;100000.55;24538;1321;3053087;-68
2022/10/12 01:41:04;;;;;;;6.70;2.30;;;;;;;7.49;54.36;99997.06;24521;1334;3049789;-71
2022/10/12 01:43:35;;;;;;;5.40;2.10;;;;;;;7.51;54.37;100003.23;24509;1334;3068778;-69
2022/10/12 01:46:24;;;;;;;8.90;2.20;;;;;;;7.48;54.80;100000.07;24490;1327;3027756;-70
2022/10/12 01:48:54;;;;;;;5.50;2.30;;;;;;;7.46;55.02;100002.59;24556;1327;3058423;-65
2022/10/12 01:51:30;;;;;;;4.50;1.80;;;;;;;7.50;54.63;100003.49;24551;1334;3026468;-70
2022/10/12 01:54:09;;;;;;;5.40;2.20;;;;;;;7.53;54.52;99999.35;24561;1342;3053671;-70
2022/10/12 01:56:57;;;;;;;4.80;2.10;;;;;;;7.51;54.56;99999.60;24509;1334;3050215;-70
2022/10/12 01:59:42;;;;;;;4.70;2.00;;;;;;;7.54;54.86;99998.44;24549;1331;3052320;-72
2022/10/12 02:02:17;;;;;;;6.60;2.30;;;;;;;7.52;55.22;100001.98;24592;1334;3050554;-73
2022/10/12 02:04:50;;;;;;;5.10;2.30;;;;;;;7.55;55.33;100000.33;24565;1334;3070098;-72
2022/10/12 02:07:40;;;;;;;4.90;2.60;;;;;;;7.53;55.64;100000.06;24571;1333;3026350;-69
2022/10/12 02:10:15;;;;;;;9.10;2.60;;;;;;;7.49;55.90;99996.73;24541;1334;3056556;-66
2022/10/12 02:12:46;;;;;;;4.80;2.20;;;;;;;7.47;56.54;100001.86;24527;1327;3052366;-68
2022/10/12 02:15:15;;;;;;;6.20;2.30;;;;;;;7.50;56.59;100002.23;24533;1343;3025872;-69
2022/10/12 02:17:47;;;;;;;9.20;3.00;;;;;;;7.45;57.23;100001.59;24515;1325;3057569;-71
2022/10/12 02:20:20;;;;;;;5.40;2.20;;;;;;;7.44;57.51;100001.45;24539;1327;3027493;-67
2022/10/12 02:22:49;;;;;;;5.80;2.10;;;;;;;7.40;57.88;100001.42;24586;1327;3050513;-67
2022/10/12 02:25:21;;;;;;;8.60;2.60;;;;;;;7.45;57.91;100003.50;24502;1336;3027968;-69
2022/10/12 02:27:59;;;;;;;5.50;2.30;;;;;;;7.46;58.02;100007.33;24547;1330;3027829;-69
2022/10/12 02:30:31;;;;;;;5.20;2.20;;;;;;;7.46;58.23;100009.02;24473;1334;3053570;-73
2022/10/12 02:33:13;;;;;;;5.60;2.30;;;;;;;7.53;57.91;100008.59;24552;1328;3027655;-66
2022/10/12 02:35:47;;;;;;;9.30;2.90;;;;;;;7.44;58.36;100010.85;24525;1332;3053881;-68
2022/10/12 02:38:32;;;;;;;6.70;2.40;;;;;;;7.44;58.57;100013.50;24525;1335;3049611;-69
2022/10/12 02:41:16;;;;;;;7.00;3.00;;;;;;;7.44;58.67;100012.23;24490;1337;3069515;-73
2022/10/12 02:43:49;;;;;;;7.70;2.70;;;;;;;7.44;58.69;100011.41;24595;1327;3049936;-71
2022/10/12 02:46:19;;;;;;;5.60;2.40;;;;;;;7.41;58.65;100013.06;24593;1324;3057527;-68
2022/10/12 02:48:48;;;;;;;8.10;2.70;;;;;;;7.42;58.99;100016.52;24525;1334;3029799;-67
2022/10/12 02:51:17;;;;;;;7.10;2.60;;;;;;;7.40;58.74;100011.54;24551;1326;3028393;-72
2022/10/12 02:53:47;;;;;;;5.20;2.60;;;;;;;7.41;58.94;100016.73;24501;1329;3056110;-69
2022/10/12 02:56:15;;;;;;;8.40;2.70;;;;;;;7.39;59.03;100009.65;24571;1334;3029973;-72
2022/10/12 02:58:45;;;;;;;6.90;3.20;;;;;;;7.39;59.07;100009.29;24580;1334;3049835;-72
2022/10/12 03:01:16;;;;;;;6.90;2.80;;;;;;;7.38;59.09;100006.38;24557;1333;3026631;-72
2022/10/12 03:03:45;;;;;;;6.90;2.20;;;;;;;7.41;59.07;100010.31;24537;1324;3070174;-71
2022/10/12 03:06:14;;;;;;;5.50;2.50;;;;;;;7.42;59.11;100009.70;24584;1324;3027486;-70
2022/10/12 03:08:43;;;;;;;7.20;3.30;;;;;;;7.46;59.00;100009.20;24588;1334;3048564;-72
2022/10/12 03:11:13;;;;;;;8.50;2.60;;;;;;;7.44;59.30;100005.98;24525;1334;3026580;-70
2022/10/12 03:13:42;;;;;;;8.30;2.50;;;;;;;7.38;59.63;100009.16;24504;1324;3051720;-72
2022/10/12 03:16:11;;;;;;;8.10;2.70;;;;;;;7.39;59.70;100013.85;24591;1340;3028298;-69
2022/10/12 03:18:43;;;;;;;4.60;2.20;;;;;;;7.41;59.75;100016.38;24473;1324;3050645;-69
2022/10/12 03:21:12;;;;;;;5.90;2.30;;;;;;;7.39;59.22;100018.55;24504;1334;3026900;-72
2022/10/12 03:23:42;;;;;;;7.70;2.70;;;;;;;7.35;59.24;100019.40;24560;1316;3027374;-68
2022/10/12 03:26:11;;;;;;;8.20;3.40;;;;;;;7.35;59.74;100025.13;24479;1333;3050613;-69
2022/10/12 03:28:39;;;;;;;12.10;3.30;;;;;;;7.28;60.50;100024.90;24582;1324;3027387;-66
2022/10/12 03:31:09;;;;;;;6.00;2.40;;;;;;;7.29;60.79;100026.76;24470;1340;3053231;-68
2022/10/12 03:33:38;;;;;;;7.10;2.90;;;;;;;7.24;60.44;100027.48;24559;1333;3028593;-67
2022/10/12 03:36:08;;;;;;;5.50;2.40;;;;;;;7.26;60.43;100022.52;24581;1324;3053146;-71
2022/10/12 03:38:37;;;;;;;7.40;2.60;;;;;;;7.26;60.47;100022.36;24615;1327;3027719;-69
2022/10/12 03:41:09;;;;;;;7.40;2.40;;;;;;;7.26;60.12;100024.27;24499;1331;3027508;-70
2022/10/12 03:43:39;;;;;;;5.10;2.20;;;;;;;7.25;59.79;100029.52;24565;1334;3026801;-65
2022/10/12 03:46:08;;;;;;;5.20;1.90;;;;;;;7.22;59.75;100031.23;24591;1324;3030422;-70
2022/10/12 03:48:37;;;;;;;4.60;2.00;;;;;;;7.21;59.67;100023.77;24553;1333;3029724;-76
2022/10/12 03:51:06;;;;;;;5.90;2.40;;;;;;;7.26;59.23;100023.77;24533;1334;3025679;-70
2022/10/12 03:53:35;;;;;;;5.50;2.20;;;;;;;7.26;59.00;100024.60;24603;1324;3049361;-72
2022/10/12 03:56:04;;;;;;;6.80;2.30;;;;;;;7.29;58.85;100023.31;24546;1333;3029941;-72
2022/10/12 03:58:33;;;;;;;6.50;2.60;;;;;;;7.32;58.36;100026.15;24586;1334;3052797;-72
2022/10/12 04:01:02;;;;;;;6.90;3.20;;;;;;;7.29;58.56;100026.41;24556;1330;3027636;-71
2022/10/12 04:03:31;;;;;;;7.80;2.90;;;;;;;7.29;58.40;100027.47;24564;1334;3052862;-71
2022/10/12 04:06:00;;;;;;;6.90;2.80;;;;;;;7.31;58.68;100024.95;24532;1333;3027476;-71
2022/10/12 04:08:29;;;;;;;7.20;3.00;;;;;;;7.30;58.72;100029.02;24578;1340;3053037;-71
2022/10/12 04:10:58;;;;;;;7.00;3.10;;;;;;;7.32;58.77;100028.05;24544;1335;3027242;-71
2022/10/12 04:13:27;;;;;;;4.70;2.20;;;;;;;7.30;58.28;100025.17;24547;1338;3050541;-67
2022/10/12 04:16:03;;;;;;;7.30;3.10;;;;;;;7.34;58.16;100023.95;24511;1325;3029316;-71
2022/10/12 04:18:32;;;;;;;6.70;3.60;;;;;;;7.38;58.13;100029.55;24544;1334;3052534;-69
2022/10/12 04:21:02;;;;;;;5.80;3.10;;;;;;;7.43;58.07;100022.23;24473;1330;3028390;-69
2022/10/12 04:23:31;;;;;;;6.40;3.70;;;;;;;7.45;57.98;100029.30;24473;1340;3029697;-69
2022/10/12 04:26:00;;;;;;;7.00;3.30;;;;;;;7.45;58.02;100031.07;24569;1334;3025732;-71
2022/10/12 04:28:29;;;;;;;11.50;5.90;;;;;;;7.47;57.82;100030.08;24595;1332;3052862;-68
2022/10/12 04:30:58;;;;;;;9.20;4.30;;;;;;;7.54;57.65;100033.14;24514;1324;3027301;-70
2022/10/12 04:33:27;;;;;;;9.20;4.50;;;;;;;7.58;57.45;100035.61;24592;1324;3051167;-69
2022/10/12 04:35:56;;;;;;;7.70;4.30;;;;;;;7.59;56.93;100038.02;24671;1325;3025781;-69
2022/10/12 04:38:25;;;;;;;10.30;5.30;;;;;;;7.64;56.91;100038.14;24551;1334;3053007;-72
2022/10/12 04:40:58;;;;;;;17.50;8.80;;;;;;;7.69;56.95;100039.53;24539;1316;3052830;-72
2022/10/12 04:43:28;;;;;;;14.80;7.50;;;;;;;7.71;56.54;100039.96;24573;1324;3029714;-67
2022/10/12 04:45:57;;;;;;;14.50;7.90;;;;;;;7.72;56.31;100042.52;24583;1332;3026894;-71
2022/10/12 04:48:26;;;;;;;18.00;7.90;;;;;;;7.79;56.24;100043.68;24486;1334;3051456;-66
2022/10/12 04:50:56;;;;;;;19.10;11.50;;;;;;;7.80;55.56;100048.15;24527;1334;3026882;-73
2022/10/12 04:53:25;;;;;;;11.60;6.00;;;;;;;7.87;55.00;100048.06;24599;1317;3026794;-68
2022/10/12 04:55:54;;;;;;;8.80;3.80;;;;;;;7.91;54.62;100046.85;24514;1332;3051852;-74
2022/10/12 04:58:24;;;;;;;6.30;2.80;;;;;;;7.95;54.64;100054.89;24594;1333;3026551;-66
2022/10/12 05:00:52;;;;;;;4.40;2.20;;;;;;;8.00;54.26;100055.38;24533;1334;3026029;-69
2022/10/12 05:03:21;;;;;;;5.50;2.50;;;;;;;8.05;53.75;100054.16;24600;1334;3052231;-70
2022/10/12 05:05:50;;;;;;;7.20;2.10;;;;;;;8.09;53.73;100057.29;24581;1334;3027748;-71
2022/10/12 05:08:19;;;;;;;4.10;2.20;;;;;;;8.13;53.76;100058.68;24602;1334;3054469;-71
2022/10/12 05:10:48;;;;;;;3.50;1.90;;;;;;;8.13;53.08;100063.41;24543;1334;3027241;-71
2022/10/12 05:13:19;;;;;;;4.10;1.90;;;;;;;8.23;52.65;100067.02;24544;1333;3052539;-69
2022/10/12 05:15:48;;;;;;;3.80;1.90;;;;;;;8.29;52.78;100073.95;24526;1323;3027482;-65
2022/10/12 05:18:17;;;;;;;4.00;1.60;;;;;;;8.32;52.59;100075.21;24493;1334;3057412;-64
2022/10/12 05:20:47;;;;;;;5.10;1.90;;;;;;;8.36;52.58;100076.93;24488;1333;3028352;-66
2022/10/12 05:23:16;;;;;;;6.10;1.80;;;;;;;8.44;52.76;100079.25;24527;1326;3029196;-68
2022/10/12 05:25:46;;;;;;;5.10;1.90;;;;;;;8.54;52.92;100082.33;24546;1327;3056448;-70
2022/10/12 05:28:17;;;;;;;4.40;2.10;;;;;;;8.60;52.54;100083.31;24557;1334;3028372;-69
2022/10/12 05:30:49;;;;;;;6.70;2.60;;;;;;;8.62;52.39;100083.74;24592;1339;3026703;-67
2022/10/12 05:33:18;;;;;;;5.60;2.90;;;;;;;8.71;52.70;100087.02;24515;1326;3027534;-67
2022/10/12 05:35:48;;;;;;;7.70;2.30;;;;;;;8.75;52.19;100088.64;24563;1324;3026592;-71
2022/10/12 05:38:17;;;;;;;5.70;2.40;;;;;;;8.74;51.67;100087.06;24553;1333;3025752;-72
2022/10/12 05:40:46;;;;;;;6.30;2.60;;;;;;;8.82;51.40;100090.22;24566;1330;3051954;-72
2022/10/12 05:43:15;;;;;;;6.80;2.60;;;;;;;8.90;51.34;100087.43;24547;1333;3026429;-66
2022/10/12 05:45:45;;;;;;;6.50;2.70;;;;;;;8.99;51.24;100088.42;24558;1335;3052471;-66
2022/10/12 05:48:14;;;;;;;6.40;2.60;;;;;;;9.03;50.87;100092.98;24560;1324;3029487;-70
2022/10/12 05:50:43;;;;;;;8.40;2.80;;;;;;;9.10;50.38;100089.88;24570;1334;3026933;-68
2022/10/12 05:53:17;;;;;;;11.30;2.70;;;;;;;9.19;49.94;100093.30;24556;1325;3053667;-69
2022/10/12 05:55:54;;;;;;;6.40;2.90;;;;;;;9.28;50.12;100094.16;24513;1324;3028241;-69
2022/10/12 05:58:23;;;;;;;7.00;2.70;;;;;;;9.39;50.25;100099.06;24576;1338;3051503;-68
2022/10/12 06:00:52;;;;;;;7.20;3.60;;;;;;;9.48;49.78;100103.05;24597;1324;3028836;-72
2022/10/12 06:03:21;;;;;;;7.20;2.70;;;;;;;9.55;49.50;100103.73;24611;1348;3052013;-72
2022/10/12 06:05:50;;;;;;;7.20;2.80;;;;;;;9.60;48.54;100103.85;24581;1340;3025085;-68
2022/10/12 06:08:20;;;;;;;5.80;3.00;;;;;;;9.69;48.28;100106.07;24537;1328;3052473;-70
2022/10/12 06:10:51;;;;;;;7.50;3.20;;;;;;;9.76;47.38;100104.19;24535;1332;3028018;-70
2022/10/12 06:13:20;;;;;;;8.10;3.50;;;;;;;9.75;46.53;100108.05;24619;1326;3027730;-71
2022/10/12 06:15:49;;;;;;;9.80;3.20;;;;;;;9.79;46.75;100108.96;24653;1324;3053407;-70
2022/10/12 06:18:19;;;;;;;7.60;3.20;;;;;;;9.90;46.07;100113.50;24528;1335;3025013;-72
2022/10/12 06:20:51;;;;;;;10.30;3.90;;;;;;;9.97;45.62;100118.23;24533;1334;3026584;-68
2022/10/12 06:23:20;;;;;;;10.40;4.30;;;;;;;10.05;45.50;100120.31;24577;1334;3026544;-71
2022/10/12 06:25:50;;;;;;;10.90;3.70;;;;;;;10.10;44.97;100120.24;24590;1326;3028754;-66
2022/10/12 06:28:19;;;;;;;10.10;3.70;;;;;;;10.22;45.08;100122.31;24574;1334;3052445;-71
2022/10/12 06:30:56;;;;;;;11.30;3.90;;;;;;;10.36;44.72;100117.23;24578;1341;3027017;-71
2022/10/12 06:33:26;;;;;;;10.10;4.30;;;;;;;10.49;44.76;100121.54;24595;1324;3068765;-74
2022/10/12 06:35:55;;;;;;;12.10;4.20;;;;;;;10.56;44.56;100120.29;24580;1337;3026234;-73
2022/10/12 06:38:24;;;;;;;10.30;3.90;;;;;;;10.69;45.13;100124.21;24557;1334;3025772;-68
2022/10/12 06:40:53;;;;;;;12.50;4.30;;;;;;;10.81;44.82;100125.36;24576;1324;3067976;-68
2022/10/12 06:43:23;;;;;;;14.80;4.70;;;;;;;10.84;44.66;100127.11;24568;1334;3026364;-68
2022/10/12 06:45:52;;;;;;;15.30;5.40;;;;;;;10.94;44.52;100127.14;24644;1333;3049266;-73
2022/10/12 06:48:21;;;;;;;13.20;5.40;;;;;;;11.07;45.12;100126.87;24540;1333;3026645;-73
2022/10/12 06:50:50;;;;;;;13.10;4.70;;;;;;;11.20;44.96;100123.00;24612;1330;3051646;-71
2022/10/12 06:53:19;;;;;;;17.10;5.60;;;;;;;11.25;44.79;100123.98;24627;1333;3029872;-71
2022/10/12 06:55:49;;;;;;;14.50;5.90;;;;;;;11.36;44.80;100122.70;24571;1333;3052536;-70
2022/10/12 06:58:18;;;;;;;16.10;5.50;;;;;;;11.46;44.47;100117.26;24636;1314;3026512;-71
2022/10/12 07:00:47;;;;;;;12.40;5.60;;;;;;;11.51;43.42;100124.70;24578;1334;3052979;-67
2022/10/12 07:03:16;;;;;;;15.40;5.90;;;;;;;11.57;43.31;100121.18;24547;1325;3029704;-67
2022/10/12 07:05:45;;;;;;;19.80;6.00;;;;;;;11.73;43.46;100118.55;24589;1334;3025809;-70
2022/10/12 07:08:14;;;;;;;14.20;5.30;;;;;;;11.85;42.80;100115.09;24711;1323;3052480;-73
2022/10/12 07:10:43;;;;;;;14.10;5.10;;;;;;;11.99;43.33;100110.86;24607;1327;3029196;-70
2022/10/12 07:13:12;;;;;;;15.10;4.80;;;;;;;12.04;42.36;100114.06;24612;1324;3053009;-72
2022/10/12 07:16:01;;;;;;;14.40;5.10;;;;;;;12.15;41.72;100113.67;24550;1330;3052735;-68
2022/10/12 07:18:30;;;;;;;14.30;5.80;;;;;;;12.18;41.21;100116.42;24537;1332;3027180;-74
2022/10/12 07:21:01;;;;;;;13.40;5.10;;;;;;;12.23;41.23;100113.89;24571;1332;3027191;-68
2022/10/12 07:23:31;;;;;;;13.60;5.20;;;;;;;12.26;40.05;100110.75;24734;1334;3029683;-70
2022/10/12 07:26:00;;;;;;;13.40;5.00;;;;;;;12.36;41.32;100108.42;24613;1334;3025786;-71
2022/10/12 07:28:29;;;;;;;15.40;5.40;;;;;;;12.34;40.62;100113.30;24544;1334;3026761;-70
2022/10/12 07:31:04;;;;;;;13.50;5.80;;;;;;;12.37;40.64;100115.39;24630;1327;3050134;-72
2022/10/12 07:33:34;;;;;;;12.40;5.20;;;;;;;12.41;40.78;100113.23;24590;1317;3069614;-67
2022/10/12 07:36:04;;;;;;;14.50;5.80;;;;;;;12.46;40.51;100114.52;24614;1332;3026408;-72
2022/10/12 07:38:33;;;;;;;11.70;5.10;;;;;;;12.55;40.67;100114.52;24664;1324;3027626;-72
2022/10/12 07:41:05;;;;;;;13.40;5.90;;;;;;;12.58;40.35;100114.33;24898;1333;3027093;-66
2022/10/12 07:43:34;;;;;;;12.80;6.10;;;;;;;12.61;39.67;100106.46;24641;1334;3026633;-70
2022/10/12 07:46:03;;;;;;;14.50;5.20;;;;;;;12.71;39.48;100107.95;24602;1327;3028954;-69
2022/10/12 07:48:32;;;;;;;13.70;5.90;;;;;;;12.84;39.23;100105.81;24606;1325;3051800;-72
2022/10/12 07:51:06;;;;;;;16.20;6.40;;;;;;;12.93;39.18;100100.65;24623;1337;3025931;-70
2022/10/12 07:53:36;;;;;;;18.90;8.50;;;;;;;12.96;38.11;100098.91;24646;1324;3052053;-74
2022/10/12 07:56:13;;;;;;;16.50;8.10;;;;;;;13.00;38.13;100102.91;24658;1334;3027058;-71
2022/10/12 07:58:50;;;;;;;18.30;8.50;;;;;;;13.14;37.87;100101.36;24564;1334;3050482;-73
2022/10/12 08:01:19;;;;;;;26.80;9.90;;;;;;;13.13;37.15;100100.17;24547;1334;3069455;-71
2022/10/12 08:03:49;;;;;;;18.70;8.40;;;;;;;13.14;36.85;100105.21;24543;1329;3029303;-72
2022/10/12 08:06:21;;;;;;;14.40;6.50;;;;;;;13.21;37.04;100102.83;24546;1340;3027744;-66
2022/10/12 08:08:50;;;;;;;15.30;6.70;;;;;;;13.22;37.06;100102.27;24555;1317;3026710;-71
2022/10/12 08:11:19;;;;;;;15.10;6.30;;;;;;;13.29;37.36;100104.46;24629;1338;3026397;-69
2022/10/12 08:13:48;;;;;;;13.10;6.20;;;;;;;13.33;36.99;100111.09;24557;1330;3056164;-68
2022/10/12 08:16:19;;;;;;;13.10;5.20;;;;;;;13.38;37.10;100106.05;24583;1332;3028116;-69
2022/10/12 08:18:50;;;;;;;11.60;4.30;;;;;;;13.35;37.21;100110.59;24624;1335;3026859;-71
2022/10/12 08:21:44;;;;;;;9.40;4.30;;;;;;;13.42;37.57;100110.75;24659;1323;3052482;-71
2022/10/12 08:24:14;;;;;;;8.80;2.80;;;;;;;13.35;37.41;100116.27;24596;1334;3028522;-71
2022/10/12 08:26:45;;;;;;;7.20;2.30;;;;;;;13.35;37.07;100117.16;24631;1334;3026457;-69
2022/10/12 08:29:14;;;;;;;7.30;2.10;;;;;;;13.30;37.42;100122.35;24560;1334;3026612;-71
2022/10/12 08:31:43;;;;;;;5.90;2.70;;;;;;;13.35;37.39;100114.48;24571;1334;3053098;-69
2022/10/12 08:34:12;;;;;;;4.40;1.70;;;;;;;13.51;37.41;100111.79;24597;1324;3028164;-67
2022/10/12 08:36:42;;;;;;;7.10;1.50;;;;;;;13.62;37.11;100113.40;24549;1332;3051687;-70
2022/10/12 08:39:11;;;;;;;5.30;1.70;;;;;;;13.66;37.14;100114.71;24585;1324;3029555;-69
2022/10/12 08:42:03;;;;;;;3.80;1.50;;;;;;;13.64;37.17;100112.23;24556;1337;3051741;-71
2022/10/12 08:44:59;;;;;;;3.40;1.70;;;;;;;13.67;37.11;100114.82;24576;1330;3052394;-67
2022/10/12 08:47:36;;;;;;;6.20;2.00;;;;;;;13.69;37.07;100109.59;24533;1340;3053333;-70
2022/10/12 08:50:09;;;;;;;6.70;1.80;;;;;;;13.85;37.41;100103.98;24588;1333;3048934;-69
2022/10/12 08:52:42;;;;;;;6.60;2.30;;;;;;;14.06;37.17;100104.05;24578;1333;3069901;-68
2022/10/12 08:55:39;;;;;;;6.90;2.50;;;;;;;14.04;37.04;100101.33;24568;1340;3027109;-73
2022/10/12 08:58:17;;;;;;;8.10;2.90;;;;;;;14.11;37.50;100099.36;24570;1327;3057773;-74
2022/10/12 09:00:48;;;;;;;8.70;3.40;;;;;;;14.24;37.70;100094.45;24604;1325;3053720;-71
2022/10/12 09:03:36;;;;;;;6.10;2.80;;;;;;;14.43;37.43;100094.25;24602;1326;3026305;-72
2022/10/12 09:06:13;;;;;;;7.20;3.20;;;;;;;14.39;37.56;100089.95;24583;1334;3052580;-70
2022/10/12 09:09:24;;;;;;;10.30;3.30;;;;;;;14.56;37.45;100087.89;24570;1334;3052417;-74
2022/10/12 09:12:13;;;;;;;7.40;2.80;;;;;;;14.80;36.65;100094.27;24590;1330;3050506;-69
2022/10/12 09:14:43;;;;;;;7.30;3.30;;;;;;;14.73;36.07;100094.89;24552;1324;3068880;-71
2022/10/12 09:17:25;;;;;;;8.30;3.80;;;;;;;14.69;36.33;100091.33;24564;1337;3026356;-68
2022/10/12 09:20:18;;;;;;;10.20;3.70;;;;;;;14.79;36.64;100093.06;24501;1334;3057914;-71
2022/10/12 09:22:51;;;;;;;9.00;3.70;;;;;;;15.05;36.46;100091.15;24572;1324;3054496;-69
2022/10/12 09:25:25;;;;;;;11.40;4.20;;;;;;;15.10;35.73;100089.73;24621;1334;3026784;-71
2022/10/12 09:27:57;;;;;;;11.10;4.60;;;;;;;15.15;36.02;100086.39;24566;1330;3052088;-71
2022/10/12 09:30:25;;;;;;;11.90;4.40;;;;;;;15.33;36.03;100083.21;24584;1322;3028352;-73
2022/10/12 09:32:55;;;;;;;8.50;4.10;;;;;;;15.56;35.83;100077.48;24491;1336;3028006;-70
2022/10/12 09:35:24;;;;;;;10.70;4.40;;;;;;;15.74;35.91;100072.67;24595;1324;3026066;-69
2022/10/12 09:37:53;;;;;;;12.60;4.80;;;;;;;15.87;35.71;100071.39;24666;1340;3053743;-70
2022/10/12 09:40:29;;;;;;;11.50;5.40;;;;;;;15.86;35.40;100075.00;24583;1324;3028438;-70
2022/10/12 09:43:00;;;;;;;14.90;5.30;;;;;;;15.88;34.69;100074.50;24515;1337;3052669;-70
2022/10/12 09:45:31;;;;;;;12.60;5.80;;;;;;;15.81;34.62;100076.42;24595;1340;3026449;-70
2022/10/12 09:48:19;;;;;;;15.70;5.40;;;;;;;15.65;34.43;100074.75;24662;1333;3027693;-70
2022/10/12 09:50:49;;;;;;;10.30;5.00;;;;;;;15.80;34.65;100066.24;24582;1334;3071190;-73
2022/10/12 09:53:35;;;;;;;12.30;5.10;;;;;;;15.98;34.08;100068.49;24591;1324;3026742;-73
2022/10/12 09:56:12;;;;;;;10.70;5.50;;;;;;;16.09;33.80;100065.91;24635;1323;3049981;-69
2022/10/12 09:58:48;;;;;;;8.50;3.80;;;;;;;16.26;33.49;100066.62;24579;1337;3069081;-70
2022/10/12 10:01:20;;;;;;;13.50;4.10;;;;;;;16.20;32.58;100058.55;24658;1327;3049293;-70
2022/10/12 10:04:16;;;;;;;9.80;3.80;;;;;;;16.35;32.56;100057.30;24614;1334;3025989;-72
2022/10/12 10:06:46;;;;;;;7.50;3.30;;;;;;;16.36;32.65;100052.27;24685;1333;3053255;-71
2022/10/12 10:09:33;;;;;;;10.10;4.10;;;;;;;16.50;32.53;100046.07;24596;1332;3052676;-72
2022/10/12 10:12:13;;;;;;;14.30;5.10;;;;;;;16.57;32.86;100054.36;24578;1330;3051222;-71
2022/10/12 10:14:47;;;;;;;11.20;4.20;;;;;;;16.65;33.01;100047.77;24554;1340;3053089;-72
2022/10/12 10:17:24;;;;;;;13.00;5.80;;;;;;;16.64;33.01;100049.09;24586;1337;3027827;-72
2022/10/12 10:19:54;;;;;;;14.10;4.80;;;;;;;16.55;32.92;100045.53;24551;1334;3069223;-68
2022/10/12 10:22:28;;;;;;;8.80;4.00;;;;;;;16.30;32.64;100046.52;24568;1323;3050213;-73
2022/10/12 10:24:58;;;;;;;10.20;4.90;;;;;;;16.11;33.35;100042.60;24562;1327;3028956;-72
2022/10/12 10:27:37;;;;;;;15.00;5.00;;;;;;;15.98;33.70;100038.08;24575;1338;3068625;-71
2022/10/12 10:30:18;;;;;;;13.80;4.20;;;;;;;16.16;34.18;100033.05;24620;1340;3052073;-72
2022/10/12 10:32:48;;;;;;;6.60;3.10;;;;;;;16.25;33.77;100037.48;24656;1332;3056456;-72
2022/10/12 10:35:19;;;;;;;6.60;3.40;;;;;;;16.21;33.55;100031.97;24539;1334;3027301;-71
2022/10/12 10:37:58;;;;;;;8.10;3.30;;;;;;;16.11;34.01;100030.59;24614;1334;3050653;-69
2022/10/12 10:40:55;;;;;;;12.00;3.30;;;;;;;16.22;33.65;100032.96;24528;1327;3057175;-68
2022/10/12 10:43:26;;;;;;;6.80;2.90;;;;;;;16.23;33.67;100032.91;24601;1331;3028645;-67
2022/10/12 10:45:58;;;;;;;6.50;3.00;;;;;;;16.25;33.83;100029.38;24576;1334;3026739;-70
2022/10/12 10:48:50;;;;;;;7.80;3.10;;;;;;;16.28;33.99;100029.70;24624;1325;3028144;-70
2022/10/12 10:51:19;;;;;;;5.40;2.80;;;;;;;16.39;33.98;100026.91;24526;1341;3052995;-72
2022/10/12 10:53:49;;;;;;;7.10;2.90;;;;;;;16.33;33.85;100022.95;24595;1334;3026978;-74
2022/10/12 10:56:27;;;;;;;6.40;2.80;;;;;;;16.52;34.10;100016.95;24577;1334;3025896;-73
2022/10/12 10:58:58;;;;;;;5.90;2.50;;;;;;;16.69;33.89;100019.65;24604;1326;3052259;-69
2022/10/12 11:01:54;;;;;;;6.90;2.60;;;;;;;16.85;33.31;100014.73;24515;1334;3025506;-71
2022/10/12 11:04:32;;;;;;;3.80;2.10;;;;;;;16.91;33.04;100013.61;24569;1330;3067975;-71
2022/10/12 11:07:07;;;;;;;5.10;2.60;;;;;;;17.00;33.63;100007.75;24598;1324;3049423;-69
2022/10/12 11:09:41;;;;;;;4.90;2.50;;;;;;;17.15;33.60;100006.36;24611;1332;3056717;-72
2022/10/12 11:12:16;;;;;;;8.00;2.40;;;;;;;17.34;33.94;100004.00;24536;1335;3053368;-71
2022/10/12 11:14:48;;;;;;;6.50;1.90;;;;;;;17.38;33.76;100011.30;24562;1335;3054840;-72
2022/10/12 11:17:27;;;;;;;4.70;2.30;;;;;;;17.38;33.59;100011.50;24548;1336;3025195;-72
2022/10/12 11:20:05;;;;;;;5.10;2.20;;;;;;;17.38;33.28;100009.84;24477;1339;3052938;-70
2022/10/12 11:22:43;;;;;;;4.40;2.40;;;;;;;17.54;33.10;100007.52;24573;1330;3048672;-72
2022/10/12 11:25:25;;;;;;;6.60;2.40;;;;;;;17.51;33.25;100008.30;24487;1343;3068667;-70
2022/10/12 11:27:55;;;;;;;6.20;2.40;;;;;;;17.42;33.67;100010.64;24579;1326;3051385;-67
2022/10/12 11:30:25;;;;;;;5.30;2.30;;;;;;;17.34;33.43;100007.38;24541;1336;3026456;-69
2022/10/12 11:33:05;;;;;;;4.20;2.10;;;;;;;17.40;33.91;100009.54;24554;1328;3070178;-66
2022/10/12 11:35:40;;;;;;;4.80;2.50;;;;;;;17.43;33.37;100008.55;24617;1331;3051060;-67
2022/10/12 11:38:21;;;;;;;5.60;2.90;;;;;;;17.51;33.54;100006.89;24548;1340;3026669;-74